sensor_id;sensor_type;location;lat;lon;timestamp;temperature;humidity
35463;DHT22;21578;47.892;9.970;2023-05-08T00:03:25;13.70;96.60
35463;DHT22;21578;47.892;9.970;2023-05-08T00:08:14;13.70;96.60
35463;DHT22;21578;47.892;9.970;2023-05-08T00:13:00;13.80;96.60
35463;DHT22;21578;47.892;9.970;2023-05-08T00:17:48;13.80;96.60
35463;DHT22;21578;47.892;9.970;2023-05-08T00:22:35;13.80;96.60
35463;DHT22;21578;47.892;9.970;2023-05-08T00:27:23;13.80;96.60
35463;DHT22;21578;47.892;9.970;2023-05-08T00:32:10;13.80;96.60
35463;DHT22;21578;47.892;9.970;2023-05-08T00:36:57;13.70;96.60
35463;DHT22;21578;47.892;9.970;2023-05-08T00:41:44;13.70;96.60
35463;DHT22;21578;47.892;9.970;2023-05-08T00:46:33;13.60;96.60
35463;DHT22;21578;47.892;9.970;2023-05-08T00:51:21;13.50;96.60
35463;DHT22;21578;47.892;9.970;2023-05-08T00:56:10;13.40;96.60
35463;DHT22;21578;47.892;9.970;2023-05-08T01:00:58;13.30;96.60
35463;DHT22;21578;47.892;9.970;2023-05-08T01:05:47;13.30;96.60
35463;DHT22;21578;47.892;9.970;2023-05-08T01:10:45;13.40;96.60
35463;DHT22;21578;47.892;9.970;2023-05-08T01:15:41;13.30;96.60
35463;DHT22;21578;47.892;9.970;2023-05-08T01:20:38;13.20;96.60
35463;DHT22;21578;47.892;9.970;2023-05-08T01:31:06;13.20;96.60
35463;DHT22;21578;47.892;9.970;2023-05-08T01:35:59;13.20;96.60
35463;DHT22;21578;47.892;9.970;2023-05-08T01:40:51;13.20;96.60
35463;DHT22;21578;47.892;9.970;2023-05-08T01:45:39;13.20;96.60
35463;DHT22;21578;47.892;9.970;2023-05-08T01:50:32;13.10;96.60
35463;DHT22;21578;47.892;9.970;2023-05-08T01:55:25;13.10;96.60
35463;DHT22;21578;47.892;9.970;2023-05-08T02:00:14;13.10;96.60
35463;DHT22;21578;47.892;9.970;2023-05-08T02:05:04;13.20;96.60
35463;DHT22;21578;47.892;9.970;2023-05-08T02:09:53;13.20;96.60
35463;DHT22;21578;47.892;9.970;2023-05-08T02:14:43;13.20;96.60
35463;DHT22;21578;47.892;9.970;2023-05-08T02:19:31;13.20;96.60
35463;DHT22;21578;47.892;9.970;2023-05-08T02:24:20;13.20;96.60
35463;DHT22;21578;47.892;9.970;2023-05-08T02:29:08;13.30;96.60
35463;DHT22;21578;47.892;9.970;2023-05-08T02:33:57;13.20;96.60
35463;DHT22;21578;47.892;9.970;2023-05-08T02:38:47;13.20;96.60
35463;DHT22;21578;47.892;9.970;2023-05-08T02:43:35;13.20;96.60
35463;DHT22;21578;47.892;9.970;2023-05-08T02:48:27;13.20;96.60
35463;DHT22;21578;47.892;9.970;2023-05-08T02:53:23;13.20;96.60
35463;DHT22;21578;47.892;9.970;2023-05-08T02:58:16;13.20;96.60
35463;DHT22;21578;47.892;9.970;2023-05-08T03:03:12;13.20;96.60
35463;DHT22;21578;47.892;9.970;2023-05-08T03:08:05;13.20;96.60
35463;DHT22;21578;47.892;9.970;2023-05-08T03:12:55;13.20;96.60
35463;DHT22;21578;47.892;9.970;2023-05-08T03:17:45;13.20;96.60
35463;DHT22;21578;47.892;9.970;2023-05-08T03:22:34;13.30;96.60
35463;DHT22;21578;47.892;9.970;2023-05-08T03:27:22;13.20;96.60
35463;DHT22;21578;47.892;9.970;2023-05-08T03:32:12;13.20;96.60
35463;DHT22;21578;47.892;9.970;2023-05-08T03:36:59;13.10;96.60
35463;DHT22;21578;47.892;9.970;2023-05-08T03:41:46;13.20;96.60
35463;DHT22;21578;47.892;9.970;2023-05-08T03:46:34;13.10;96.60
35463;DHT22;21578;47.892;9.970;2023-05-08T03:51:25;13.20;96.60
35463;DHT22;21578;47.892;9.970;2023-05-08T03:56:13;13.20;96.60
35463;DHT22;21578;47.892;9.970;2023-05-08T04:01:06;13.20;96.60
35463;DHT22;21578;47.892;9.970;2023-05-08T04:05:59;13.20;96.60
35463;DHT22;21578;47.892;9.970;2023-05-08T04:10:56;13.20;96.60
35463;DHT22;21578;47.892;9.970;2023-05-08T04:15:50;13.20;96.60
35463;DHT22;21578;47.892;9.970;2023-05-08T04:20:39;13.20;96.60
35463;DHT22;21578;47.892;9.970;2023-05-08T04:25:27;13.20;96.60
35463;DHT22;21578;47.892;9.970;2023-05-08T04:30:17;13.20;96.60
35463;DHT22;21578;47.892;9.970;2023-05-08T04:35:05;13.20;96.60
35463;DHT22;21578;47.892;9.970;2023-05-08T04:39:52;13.20;96.60
35463;DHT22;21578;47.892;9.970;2023-05-08T04:44:39;13.20;96.60
35463;DHT22;21578;47.892;9.970;2023-05-08T04:49:27;13.20;96.60
35463;DHT22;21578;47.892;9.970;2023-05-08T04:54:14;13.10;96.60
35463;DHT22;21578;47.892;9.970;2023-05-08T04:59:01;13.10;96.60
35463;DHT22;21578;47.892;9.970;2023-05-08T05:03:48;13.10;96.60
35463;DHT22;21578;47.892;9.970;2023-05-08T05:08:36;13.10;96.60
35463;DHT22;21578;47.892;9.970;2023-05-08T05:13:23;13.20;96.60
35463;DHT22;21578;47.892;9.970;2023-05-08T05:18:10;13.20;96.60
35463;DHT22;21578;47.892;9.970;2023-05-08T05:22:57;13.10;96.60
35463;DHT22;21578;47.892;9.970;2023-05-08T05:27:45;13.10;96.60
35463;DHT22;21578;47.892;9.970;2023-05-08T05:32:32;13.10;96.60
35463;DHT22;21578;47.892;9.970;2023-05-08T05:37:19;13.20;96.60
35463;DHT22;21578;47.892;9.970;2023-05-08T05:42:06;13.20;96.60
35463;DHT22;21578;47.892;9.970;2023-05-08T05:46:54;13.20;96.60
35463;DHT22;21578;47.892;9.970;2023-05-08T05:51:41;13.20;96.60
35463;DHT22;21578;47.892;9.970;2023-05-08T05:56:28;13.10;96.60
35463;DHT22;21578;47.892;9.970;2023-05-08T06:01:15;13.10;96.60
35463;DHT22;21578;47.892;9.970;2023-05-08T06:06:04;13.10;96.60
35463;DHT22;21578;47.892;9.970;2023-05-08T06:10:51;13.10;96.60
35463;DHT22;21578;47.892;9.970;2023-05-08T06:15:38;13.20;96.60
35463;DHT22;21578;47.892;9.970;2023-05-08T06:20:25;13.20;96.60
35463;DHT22;21578;47.892;9.970;2023-05-08T06:25:13;13.20;96.60
35463;DHT22;21578;47.892;9.970;2023-05-08T06:30:02;13.20;96.60
35463;DHT22;21578;47.892;9.970;2023-05-08T06:34:52;13.30;96.60
35463;DHT22;21578;47.892;9.970;2023-05-08T06:39:39;13.40;96.60
35463;DHT22;21578;47.892;9.970;2023-05-08T06:44:27;13.40;96.60
35463;DHT22;21578;47.892;9.970;2023-05-08T06:49:14;13.50;96.60
35463;DHT22;21578;47.892;9.970;2023-05-08T06:54:01;13.50;96.60
35463;DHT22;21578;47.892;9.970;2023-05-08T06:58:52;13.60;96.60
35463;DHT22;21578;47.892;9.970;2023-05-08T07:03:40;13.60;96.60
35463;DHT22;21578;47.892;9.970;2023-05-08T07:08:27;13.50;96.60
35463;DHT22;21578;47.892;9.970;2023-05-08T07:13:16;13.60;96.60
35463;DHT22;21578;47.892;9.970;2023-05-08T07:18:06;13.60;96.60
35463;DHT22;21578;47.892;9.970;2023-05-08T07:22:54;13.70;96.60
35463;DHT22;21578;47.892;9.970;2023-05-08T07:27:41;13.80;96.60
35463;DHT22;21578;47.892;9.970;2023-05-08T07:32:28;13.80;96.60
35463;DHT22;21578;47.892;9.970;2023-05-08T07:37:16;13.80;96.60
35463;DHT22;21578;47.892;9.970;2023-05-08T07:42:04;13.90;96.60
35463;DHT22;21578;47.892;9.970;2023-05-08T07:46:51;14.00;96.60
35463;DHT22;21578;47.892;9.970;2023-05-08T07:51:38;14.00;96.60
35463;DHT22;21578;47.892;9.970;2023-05-08T07:56:25;14.00;96.60
35463;DHT22;21578;47.892;9.970;2023-05-08T08:01:14;14.10;96.60
35463;DHT22;21578;47.892;9.970;2023-05-08T08:06:02;14.20;96.60
35463;DHT22;21578;47.892;9.970;2023-05-08T08:10:49;14.20;96.60
35463;DHT22;21578;47.892;9.970;2023-05-08T08:15:37;14.40;96.60
35463;DHT22;21578;47.892;9.970;2023-05-08T08:20:25;14.50;96.60
35463;DHT22;21578;47.892;9.970;2023-05-08T08:25:12;14.60;96.60
35463;DHT22;21578;47.892;9.970;2023-05-08T08:29:59;14.80;96.60
35463;DHT22;21578;47.892;9.970;2023-05-08T08:34:46;14.80;96.60
35463;DHT22;21578;47.892;9.970;2023-05-08T08:39:34;14.80;96.60
35463;DHT22;21578;47.892;9.970;2023-05-08T08:44:21;15.00;96.60
35463;DHT22;21578;47.892;9.970;2023-05-08T08:49:09;15.20;96.60
35463;DHT22;21578;47.892;9.970;2023-05-08T08:54:03;15.40;96.60
35463;DHT22;21578;47.892;9.970;2023-05-08T08:58:56;15.50;96.60
35463;DHT22;21578;47.892;9.970;2023-05-08T09:03:43;15.50;96.60
35463;DHT22;21578;47.892;9.970;2023-05-08T09:08:30;15.50;96.60
35463;DHT22;21578;47.892;9.970;2023-05-08T09:13:18;15.40;96.60
35463;DHT22;21578;47.892;9.970;2023-05-08T09:18:06;15.40;96.60
35463;DHT22;21578;47.892;9.970;2023-05-08T09:22:53;15.60;96.60
35463;DHT22;21578;47.892;9.970;2023-05-08T09:27:40;15.70;96.60
35463;DHT22;21578;47.892;9.970;2023-05-08T09:32:27;15.80;96.60
35463;DHT22;21578;47.892;9.970;2023-05-08T09:37:16;15.90;96.60
35463;DHT22;21578;47.892;9.970;2023-05-08T09:42:04;16.20;96.60
35463;DHT22;21578;47.892;9.970;2023-05-08T09:46:51;16.40;96.60
35463;DHT22;21578;47.892;9.970;2023-05-08T09:51:50;16.40;96.60
35463;DHT22;21578;47.892;9.970;2023-05-08T09:56:39;16.60;96.60
35463;DHT22;21578;47.892;9.970;2023-05-08T10:01:30;16.70;96.60
35463;DHT22;21578;47.892;9.970;2023-05-08T10:06:19;16.80;96.60
35463;DHT22;21578;47.892;9.970;2023-05-08T10:11:15;16.90;96.60
35463;DHT22;21578;47.892;9.970;2023-05-08T10:16:04;17.00;96.60
35463;DHT22;21578;47.892;9.970;2023-05-08T10:20:54;17.10;96.60
35463;DHT22;21578;47.892;9.970;2023-05-08T10:25:44;17.00;96.60
35463;DHT22;21578;47.892;9.970;2023-05-08T10:30:31;17.10;96.60
35463;DHT22;21578;47.892;9.970;2023-05-08T10:35:21;17.30;96.60
35463;DHT22;21578;47.892;9.970;2023-05-08T10:40:09;17.40;96.60
35463;DHT22;21578;47.892;9.970;2023-05-08T10:44:56;17.30;96.60
35463;DHT22;21578;47.892;9.970;2023-05-08T10:49:48;17.30;96.60
35463;DHT22;21578;47.892;9.970;2023-05-08T10:54:50;17.20;96.60
35463;DHT22;21578;47.892;9.970;2023-05-08T10:59:48;17.30;96.60
35463;DHT22;21578;47.892;9.970;2023-05-08T11:04:35;17.30;96.60
35463;DHT22;21578;47.892;9.970;2023-05-08T11:09:27;17.60;96.60
35463;DHT22;21578;47.892;9.970;2023-05-08T11:14:16;17.70;96.60
35463;DHT22;21578;47.892;9.970;2023-05-08T11:19:16;18.10;96.50
35463;DHT22;21578;47.892;9.970;2023-05-08T11:24:09;18.60;94.00
35463;DHT22;21578;47.892;9.970;2023-05-08T11:28:56;18.40;92.90
35463;DHT22;21578;47.892;9.970;2023-05-08T11:33:45;18.30;95.40
35463;DHT22;21578;47.892;9.970;2023-05-08T11:38:33;18.60;95.40
35463;DHT22;21578;47.892;9.970;2023-05-08T11:43:25;18.70;93.40
35463;DHT22;21578;47.892;9.970;2023-05-08T11:48:13;18.50;94.30
35463;DHT22;21578;47.892;9.970;2023-05-08T13:30:25;16.20;96.60
35463;DHT22;21578;47.892;9.970;2023-05-08T13:35:11;16.10;96.60
35463;DHT22;21578;47.892;9.970;2023-05-08T13:39:58;15.90;96.60
35463;DHT22;21578;47.892;9.970;2023-05-08T13:44:45;15.70;96.60
35463;DHT22;21578;47.892;9.970;2023-05-08T13:49:34;15.50;96.60
35463;DHT22;21578;47.892;9.970;2023-05-08T13:54:21;15.30;96.60
35463;DHT22;21578;47.892;9.970;2023-05-08T13:59:08;15.20;96.60
35463;DHT22;21578;47.892;9.970;2023-05-08T14:03:55;15.20;96.60
35463;DHT22;21578;47.892;9.970;2023-05-08T14:08:44;15.10;96.60
35463;DHT22;21578;47.892;9.970;2023-05-08T14:13:30;15.00;96.60
35463;DHT22;21578;47.892;9.970;2023-05-08T14:18:17;15.00;96.60
35463;DHT22;21578;47.892;9.970;2023-05-08T14:23:04;15.10;96.60
35463;DHT22;21578;47.892;9.970;2023-05-08T14:27:53;15.10;96.60
35463;DHT22;21578;47.892;9.970;2023-05-08T14:32:40;15.20;96.60
35463;DHT22;21578;47.892;9.970;2023-05-08T14:37:27;15.20;96.60
35463;DHT22;21578;47.892;9.970;2023-05-08T14:42:14;15.10;96.60
35463;DHT22;21578;47.892;9.970;2023-05-08T14:47:02;15.10;96.60
35463;DHT22;21578;47.892;9.970;2023-05-08T14:51:49;15.10;96.60
35463;DHT22;21578;47.892;9.970;2023-05-08T14:56:36;15.10;96.60
35463;DHT22;21578;47.892;9.970;2023-05-08T15:01:23;15.10;96.60
35463;DHT22;21578;47.892;9.970;2023-05-08T15:06:12;15.10;96.60
35463;DHT22;21578;47.892;9.970;2023-05-08T15:10:59;15.10;96.60
35463;DHT22;21578;47.892;9.970;2023-05-08T15:15:45;15.10;96.60
35463;DHT22;21578;47.892;9.970;2023-05-08T15:20:33;15.20;96.60
35463;DHT22;21578;47.892;9.970;2023-05-08T15:25:21;15.20;96.60
35463;DHT22;21578;47.892;9.970;2023-05-08T15:30:11;15.20;96.60
35463;DHT22;21578;47.892;9.970;2023-05-08T15:34:58;15.20;96.60
35463;DHT22;21578;47.892;9.970;2023-05-08T15:39:46;15.20;96.60
35463;DHT22;21578;47.892;9.970;2023-05-08T15:44:36;15.20;96.60
35463;DHT22;21578;47.892;9.970;2023-05-08T15:49:23;15.20;96.60
35463;DHT22;21578;47.892;9.970;2023-05-08T15:54:10;15.10;96.60
35463;DHT22;21578;47.892;9.970;2023-05-08T15:58:57;14.90;96.60
35463;DHT22;21578;47.892;9.970;2023-05-08T16:03:46;14.90;96.60
35463;DHT22;21578;47.892;9.970;2023-05-08T16:08:33;14.90;96.60
35463;DHT22;21578;47.892;9.970;2023-05-08T16:13:20;15.00;96.60
35463;DHT22;21578;47.892;9.970;2023-05-08T16:18:07;14.90;96.60
35463;DHT22;21578;47.892;9.970;2023-05-08T16:22:56;15.00;96.60
35463;DHT22;21578;47.892;9.970;2023-05-08T16:27:43;15.00;96.60
35463;DHT22;21578;47.892;9.970;2023-05-08T16:32:30;15.00;96.60
35463;DHT22;21578;47.892;9.970;2023-05-08T16:37:17;15.00;96.60
35463;DHT22;21578;47.892;9.970;2023-05-08T16:42:06;15.10;96.60
35463;DHT22;21578;47.892;9.970;2023-05-08T16:46:53;15.20;96.60
35463;DHT22;21578;47.892;9.970;2023-05-08T16:51:40;15.20;96.60
35463;DHT22;21578;47.892;9.970;2023-05-08T16:56:27;15.10;96.60
35463;DHT22;21578;47.892;9.970;2023-05-08T17:01:15;15.10;96.60
35463;DHT22;21578;47.892;9.970;2023-05-08T17:06:05;15.10;96.60
35463;DHT22;21578;47.892;9.970;2023-05-08T17:10:52;15.10;96.60
35463;DHT22;21578;47.892;9.970;2023-05-08T17:15:39;15.10;96.60
35463;DHT22;21578;47.892;9.970;2023-05-08T17:20:27;15.10;96.60
35463;DHT22;21578;47.892;9.970;2023-05-08T17:25:14;15.10;96.60
35463;DHT22;21578;47.892;9.970;2023-05-08T17:30:02;15.10;96.60
35463;DHT22;21578;47.892;9.970;2023-05-08T17:34:49;15.10;96.60
35463;DHT22;21578;47.892;9.970;2023-05-08T17:39:38;15.10;96.60
35463;DHT22;21578;47.892;9.970;2023-05-08T17:44:25;15.10;96.60
35463;DHT22;21578;47.892;9.970;2023-05-08T17:49:12;15.10;96.60
35463;DHT22;21578;47.892;9.970;2023-05-08T17:53:59;15.00;96.60
35463;DHT22;21578;47.892;9.970;2023-05-08T17:58:48;15.00;96.60
35463;DHT22;21578;47.892;9.970;2023-05-08T18:03:36;14.90;96.60
35463;DHT22;21578;47.892;9.970;2023-05-08T18:08:23;14.80;96.60
35463;DHT22;21578;47.892;9.970;2023-05-08T18:13:10;14.70;96.60
35463;DHT22;21578;47.892;9.970;2023-05-08T18:17:58;14.60;96.60
35463;DHT22;21578;47.892;9.970;2023-05-08T18:22:46;14.50;96.60
35463;DHT22;21578;47.892;9.970;2023-05-08T18:27:32;14.40;96.60
35463;DHT22;21578;47.892;9.970;2023-05-08T18:32:19;14.30;96.60
35463;DHT22;21578;47.892;9.970;2023-05-08T18:37:08;14.20;96.60
35463;DHT22;21578;47.892;9.970;2023-05-08T18:41:54;14.10;96.60
35463;DHT22;21578;47.892;9.970;2023-05-08T18:46:41;14.00;96.60
35463;DHT22;21578;47.892;9.970;2023-05-08T18:51:28;13.90;96.60
35463;DHT22;21578;47.892;9.970;2023-05-08T18:56:16;13.90;96.60
35463;DHT22;21578;47.892;9.970;2023-05-08T19:01:05;13.80;96.60
35463;DHT22;21578;47.892;9.970;2023-05-08T19:05:53;13.70;96.60
35463;DHT22;21578;47.892;9.970;2023-05-08T19:10:40;13.70;96.60
35463;DHT22;21578;47.892;9.970;2023-05-08T19:15:28;13.60;96.60
35463;DHT22;21578;47.892;9.970;2023-05-08T19:20:15;13.60;96.60
35463;DHT22;21578;47.892;9.970;2023-05-08T19:25:03;13.60;96.60
35463;DHT22;21578;47.892;9.970;2023-05-08T19:29:50;13.60;96.60
35463;DHT22;21578;47.892;9.970;2023-05-08T19:34:38;13.60;96.60
35463;DHT22;21578;47.892;9.970;2023-05-08T19:39:25;13.50;96.60
35463;DHT22;21578;47.892;9.970;2023-05-08T19:44:12;13.50;96.60
35463;DHT22;21578;47.892;9.970;2023-05-08T19:48:59;13.40;96.60
35463;DHT22;21578;47.892;9.970;2023-05-08T19:53:47;13.40;96.60
35463;DHT22;21578;47.892;9.970;2023-05-08T19:58:34;13.30;96.60
35463;DHT22;21578;47.892;9.970;2023-05-08T20:03:21;13.30;96.60
35463;DHT22;21578;47.892;9.970;2023-05-08T20:08:08;13.20;96.60
35463;DHT22;21578;47.892;9.970;2023-05-08T20:12:56;13.20;96.60
35463;DHT22;21578;47.892;9.970;2023-05-08T20:17:43;13.20;96.60
35463;DHT22;21578;47.892;9.970;2023-05-08T20:22:30;13.20;96.60
35463;DHT22;21578;47.892;9.970;2023-05-08T20:27:17;13.20;96.60
35463;DHT22;21578;47.892;9.970;2023-05-08T20:32:05;13.10;96.60
35463;DHT22;21578;47.892;9.970;2023-05-08T20:36:52;13.00;96.60
35463;DHT22;21578;47.892;9.970;2023-05-08T20:41:40;13.10;96.60
35463;DHT22;21578;47.892;9.970;2023-05-08T20:46:27;13.00;96.60
35463;DHT22;21578;47.892;9.970;2023-05-08T20:51:16;13.00;96.60
35463;DHT22;21578;47.892;9.970;2023-05-08T20:56:03;13.00;96.60
35463;DHT22;21578;47.892;9.970;2023-05-08T21:00:51;13.00;96.60
35463;DHT22;21578;47.892;9.970;2023-05-08T21:05:38;13.00;96.60
35463;DHT22;21578;47.892;9.970;2023-05-08T21:10:26;12.90;96.60
35463;DHT22;21578;47.892;9.970;2023-05-08T21:15:13;12.90;96.60
35463;DHT22;21578;47.892;9.970;2023-05-08T21:20:00;12.80;96.60
35463;DHT22;21578;47.892;9.970;2023-05-08T21:24:47;12.80;96.60
35463;DHT22;21578;47.892;9.970;2023-05-08T21:29:35;12.90;96.60
35463;DHT22;21578;47.892;9.970;2023-05-08T21:34:22;12.80;96.60
35463;DHT22;21578;47.892;9.970;2023-05-08T21:39:09;12.80;96.60
35463;DHT22;21578;47.892;9.970;2023-05-08T21:43:55;12.80;96.60
35463;DHT22;21578;47.892;9.970;2023-05-08T21:48:44;12.70;96.60
35463;DHT22;21578;47.892;9.970;2023-05-08T21:53:31;12.70;96.60
35463;DHT22;21578;47.892;9.970;2023-05-08T21:58:17;12.60;96.60
35463;DHT22;21578;47.892;9.970;2023-05-08T22:03:04;12.60;96.60
35463;DHT22;21578;47.892;9.970;2023-05-08T22:07:53;12.60;96.60
35463;DHT22;21578;47.892;9.970;2023-05-08T22:12:40;12.50;96.60
35463;DHT22;21578;47.892;9.970;2023-05-08T22:17:26;12.40;96.60
35463;DHT22;21578;47.892;9.970;2023-05-08T22:22:13;12.40;96.60
35463;DHT22;21578;47.892;9.970;2023-05-08T22:27:02;12.30;96.60
35463;DHT22;21578;47.892;9.970;2023-05-08T22:31:48;12.30;96.60
35463;DHT22;21578;47.892;9.970;2023-05-08T22:36:36;12.30;96.60
35463;DHT22;21578;47.892;9.970;2023-05-08T22:41:23;12.20;96.60
35463;DHT22;21578;47.892;9.970;2023-05-08T22:46:11;12.20;96.60
35463;DHT22;21578;47.892;9.970;2023-05-08T22:50:58;12.20;96.60
35463;DHT22;21578;47.892;9.970;2023-05-08T22:55:45;12.20;96.60
35463;DHT22;21578;47.892;9.970;2023-05-08T23:00:32;12.20;96.60
35463;DHT22;21578;47.892;9.970;2023-05-08T23:05:21;12.20;96.60
35463;DHT22;21578;47.892;9.970;2023-05-08T23:10:08;12.20;96.60
35463;DHT22;21578;47.892;9.970;2023-05-08T23:14:55;12.20;96.60
35463;DHT22;21578;47.892;9.970;2023-05-08T23:19:42;12.30;96.60
35463;DHT22;21578;47.892;9.970;2023-05-08T23:24:33;12.40;96.60
35463;DHT22;21578;47.892;9.970;2023-05-08T23:29:20;12.40;96.60
35463;DHT22;21578;47.892;9.970;2023-05-08T23:34:07;12.40;96.60
35463;DHT22;21578;47.892;9.970;2023-05-08T23:38:54;12.40;96.60
35463;DHT22;21578;47.892;9.970;2023-05-08T23:43:42;12.40;96.60
35463;DHT22;21578;47.892;9.970;2023-05-08T23:48:29;12.30;96.60
35463;DHT22;21578;47.892;9.970;2023-05-08T23:53:16;12.30;96.60
35463;DHT22;21578;47.892;9.970;2023-05-08T23:58:03;12.40;96.60
